createdAt,value
2023-01-25T00:00:49.469Z,66.10
2023-01-25T00:03:16.391Z,66.10
2023-01-25T00:05:43.259Z,66.20
2023-01-25T00:08:10.081Z,66.70
2023-01-25T00:10:39.765Z,67.10
2023-01-25T00:13:06.598Z,67.20
2023-01-25T00:15:33.395Z,67.00
2023-01-25T00:18:00.217Z,67.00
2023-01-25T00:20:26.997Z,67.10
2023-01-25T00:22:53.717Z,66.50
2023-01-25T00:25:20.473Z,66.70
2023-01-25T00:27:47.328Z,66.70
2023-01-25T00:30:17.617Z,66.80
2023-01-25T00:32:58.266Z,66.60
2023-01-25T00:35:31.406Z,66.60
2023-01-25T00:38:02.161Z,66.60
2023-01-25T00:40:34.272Z,66.60
2023-01-25T00:43:01.212Z,66.80
2023-01-25T00:45:28.061Z,66.90
2023-01-25T00:47:56.271Z,66.60
2023-01-25T00:50:23.180Z,66.40
2023-01-25T00:52:49.909Z,66.60
2023-01-25T00:55:16.773Z,66.70
2023-01-25T00:57:45.727Z,66.60
2023-01-25T01:00:13.125Z,66.60
2023-01-25T01:02:40.672Z,66.80
2023-01-25T01:05:08.354Z,66.90
2023-01-25T01:07:35.392Z,66.80
2023-01-25T01:10:02.412Z,66.70
2023-01-25T01:12:29.480Z,66.80
2023-01-25T01:14:57.226Z,66.70
2023-01-25T01:17:24.290Z,66.90
2023-01-25T01:19:51.130Z,67.20
2023-01-25T01:22:18.501Z,67.10
2023-01-25T01:24:47.337Z,66.70
2023-01-25T01:27:14.202Z,66.40
2023-01-25T01:29:40.947Z,66.40
2023-01-25T01:32:10.758Z,66.60
2023-01-25T01:34:45.036Z,66.70
2023-01-25T01:37:12.382Z,66.90
2023-01-25T01:39:39.390Z,67.20
2023-01-25T01:42:06.178Z,66.90
2023-01-25T01:44:46.063Z,67.30
2023-01-25T01:47:40.792Z,66.70
2023-01-25T01:50:20.458Z,66.30
2023-01-25T01:52:47.506Z,66.30
2023-01-25T01:55:18.247Z,66.00
2023-01-25T01:57:50.989Z,66.30
2023-01-25T02:00:29.562Z,65.90
2023-01-25T02:02:58.833Z,66.00
2023-01-25T02:05:56.488Z,66.00
2023-01-25T02:08:24.923Z,66.20
2023-01-25T02:10:51.795Z,66.10
2023-01-25T02:13:19.957Z,66.00
2023-01-25T02:15:50.139Z,65.80
2023-01-25T02:18:19.182Z,65.60
2023-01-25T02:20:50.358Z,65.70
2023-01-25T02:23:19.895Z,65.80
2023-01-25T02:25:47.046Z,65.80
2023-01-25T02:28:29.107Z,66.00
2023-01-25T02:30:55.862Z,66.50
2023-01-25T02:33:25.135Z,66.30
2023-01-25T02:36:16.711Z,65.90
2023-01-25T02:38:53.318Z,66.00
2023-01-25T02:41:25.637Z,66.10
2023-01-25T02:43:52.957Z,66.30
2023-01-25T02:46:26.064Z,66.30
2023-01-25T02:48:54.266Z,66.50
2023-01-25T02:51:23.512Z,66.50
2023-01-25T02:53:50.967Z,67.00
2023-01-25T02:56:18.771Z,66.90
2023-01-25T02:58:47.330Z,67.10
2023-01-25T03:01:15.758Z,67.00
2023-01-25T03:03:42.807Z,67.10
2023-01-25T03:06:09.782Z,67.10
2023-01-25T03:08:36.893Z,67.10
2023-01-25T03:11:06.275Z,67.20
2023-01-25T03:13:35.656Z,67.20
2023-01-25T03:16:06.188Z,66.90
2023-01-25T03:18:34.531Z,67.00
2023-01-25T03:21:10.737Z,67.10
2023-01-25T03:23:39.675Z,67.20
2023-01-25T03:26:16.758Z,67.30
2023-01-25T03:29:10.382Z,66.90
2023-01-25T03:31:40.021Z,66.40
2023-01-25T03:34:07.189Z,66.70
2023-01-25T03:36:38.180Z,66.80
2023-01-25T03:39:05.096Z,66.40
2023-01-25T03:41:36.141Z,66.10
2023-01-25T03:44:03.214Z,65.80
2023-01-25T03:46:30.206Z,66.00
2023-01-25T03:48:57.636Z,66.30
2023-01-25T03:51:24.521Z,66.40
2023-01-25T03:53:51.896Z,66.10
2023-01-25T03:56:20.389Z,66.10
2023-01-25T03:59:08.441Z,66.30
2023-01-25T04:01:36.093Z,66.10
2023-01-25T04:04:03.078Z,66.10
2023-01-25T04:06:30.070Z,66.30
2023-01-25T04:08:57.548Z,66.20
2023-01-25T04:11:26.289Z,66.30
2023-01-25T04:13:53.842Z,66.20
2023-01-25T04:16:22.601Z,66.30
2023-01-25T04:19:07.865Z,66.50
2023-01-25T04:21:34.696Z,66.50
2023-01-25T04:24:02.047Z,66.30
2023-01-25T04:26:30.339Z,66.50
2023-01-25T04:28:59.731Z,66.40
2023-01-25T04:31:27.339Z,66.50
2023-01-25T04:33:55.590Z,66.30
2023-01-25T04:36:22.904Z,66.20
2023-01-25T04:38:49.905Z,66.00
2023-01-25T04:41:16.633Z,66.00
2023-01-25T04:43:44.745Z,66.30
2023-01-25T04:46:11.681Z,66.50
2023-01-25T04:48:39.430Z,66.80
2023-01-25T04:51:09.463Z,66.80
2023-01-25T04:53:36.457Z,66.80
2023-01-25T04:56:06.455Z,67.00
2023-01-25T04:58:41.308Z,67.30
2023-01-25T05:01:08.180Z,67.60
2023-01-25T05:03:35.044Z,67.70
2023-01-25T05:06:02.907Z,67.20
2023-01-25T05:08:29.786Z,66.90
2023-01-25T05:11:00.575Z,66.90
2023-01-25T05:13:27.526Z,67.10
2023-01-25T05:16:08.932Z,67.10
2023-01-25T05:18:47.929Z,67.10
2023-01-25T05:21:38.055Z,66.40
2023-01-25T05:24:05.513Z,66.30
2023-01-25T05:26:52.013Z,66.50
2023-01-25T05:29:18.959Z,66.70
2023-01-25T05:31:52.034Z,67.20
2023-01-25T05:34:18.894Z,67.50
2023-01-25T05:36:45.749Z,67.70
2023-01-25T05:39:13.948Z,67.30
2023-01-25T05:41:40.725Z,67.20
2023-01-25T05:44:07.497Z,67.40
2023-01-25T05:46:39.154Z,68.70
2023-01-25T05:49:06.392Z,67.90
2023-01-25T05:51:33.463Z,67.90
2023-01-25T05:54:01.396Z,68.30
2023-01-25T05:56:28.864Z,67.80
2023-01-25T05:58:57.344Z,68.00
2023-01-25T06:01:25.909Z,67.70
2023-01-25T06:03:56.943Z,67.40
2023-01-25T06:06:25.682Z,67.40
2023-01-25T06:08:53.526Z,67.40
2023-01-25T06:11:23.290Z,67.10
2023-01-25T06:13:52.242Z,67.30
2023-01-25T06:16:21.033Z,67.60
2023-01-25T06:19:08.964Z,67.50
2023-01-25T06:21:56.042Z,67.50
2023-01-25T06:24:22.889Z,67.10
2023-01-25T06:26:49.682Z,67.10
2023-01-25T06:29:16.491Z,67.00
2023-01-25T06:31:43.508Z,67.00
2023-01-25T06:34:10.469Z,66.80
2023-01-25T06:36:37.543Z,67.10
2023-01-25T06:39:04.477Z,67.10
2023-01-25T06:41:31.264Z,67.00
2023-01-25T06:43:58.099Z,67.00
2023-01-25T06:46:24.907Z,67.00
2023-01-25T06:48:51.751Z,67.00
2023-01-25T06:51:18.718Z,66.90
2023-01-25T06:53:47.330Z,67.10
2023-01-25T06:56:21.775Z,66.90
2023-01-25T06:58:49.551Z,66.70
2023-01-25T07:01:22.394Z,66.40
2023-01-25T07:03:53.957Z,67.20
2023-01-25T07:06:21.231Z,66.70
2023-01-25T07:08:48.584Z,66.50
2023-01-25T07:11:16.336Z,66.60
2023-01-25T07:13:47.897Z,66.10
2023-01-25T07:16:19.804Z,66.10
2023-01-25T07:18:47.198Z,66.30
2023-01-25T07:21:22.724Z,66.20
2023-01-25T07:23:53.092Z,66.20
2023-01-25T07:26:23.783Z,66.60
2023-01-25T07:28:51.044Z,66.70
2023-01-25T07:31:19.056Z,67.10
2023-01-25T07:33:50.587Z,67.30
2023-01-25T07:36:18.103Z,67.30
2023-01-25T07:38:45.234Z,67.20
2023-01-25T07:41:13.096Z,67.30
2023-01-25T07:43:39.968Z,67.30
2023-01-25T07:46:12.100Z,67.30
2023-01-25T07:48:39.887Z,67.30
2023-01-25T07:51:13.008Z,67.20
2023-01-25T07:53:41.421Z,67.00
2023-01-25T07:56:09.574Z,67.20
2023-01-25T07:58:36.943Z,67.30
2023-01-25T08:01:11.504Z,67.20
2023-01-25T08:03:38.384Z,66.80
2023-01-25T08:06:06.060Z,66.80
2023-01-25T08:08:34.843Z,67.10
2023-01-25T08:11:08.719Z,67.00
2023-01-25T08:13:35.642Z,67.00
2023-01-25T08:16:02.468Z,67.00
2023-01-25T08:18:29.261Z,67.20
2023-01-25T08:20:59.343Z,67.30
2023-01-25T08:23:26.735Z,67.60
2023-01-25T08:25:53.453Z,67.40
2023-01-25T08:28:20.269Z,67.30
2023-01-25T08:30:56.753Z,67.30
2023-01-25T08:33:24.226Z,67.50
2023-01-25T08:35:57.615Z,67.70
2023-01-25T08:38:24.503Z,67.50
2023-01-25T08:40:51.541Z,67.40
2023-01-25T08:43:18.455Z,67.20
2023-01-25T08:45:45.711Z,67.10
2023-01-25T08:48:15.737Z,67.10
2023-01-25T08:50:48.533Z,66.90
2023-01-25T08:53:15.485Z,66.60
2023-01-25T08:55:43.092Z,66.50
2023-01-25T08:58:21.753Z,66.30
2023-01-25T09:00:49.523Z,66.40
2023-01-25T09:03:18.258Z,65.80
2023-01-25T09:05:45.128Z,66.00
2023-01-25T09:08:11.890Z,66.50
2023-01-25T09:10:38.742Z,66.50
2023-01-25T09:13:07.687Z,66.80
2023-01-25T09:15:35.456Z,67.80
2023-01-25T09:18:02.235Z,67.10
2023-01-25T09:20:31.719Z,66.80
2023-01-25T09:23:01.069Z,66.70
2023-01-25T09:25:27.817Z,66.30
2023-01-25T09:27:54.580Z,66.40
2023-01-25T09:30:24.683Z,66.40
2023-01-25T09:32:57.548Z,66.10
2023-01-25T09:35:24.362Z,66.30
2023-01-25T09:37:52.348Z,66.20
2023-01-25T09:40:23.988Z,66.30
2023-01-25T09:43:03.265Z,66.40
2023-01-25T09:45:35.344Z,66.50
2023-01-25T09:48:14.505Z,66.40
2023-01-25T09:51:22.733Z,66.30
2023-01-25T09:53:51.694Z,66.20
2023-01-25T09:56:26.027Z,66.50
2023-01-25T09:59:09.561Z,66.40
2023-01-25T10:01:57.300Z,66.40
2023-01-25T10:04:42.558Z,66.60
2023-01-25T10:07:30.987Z,66.90
2023-01-25T10:10:07.196Z,66.90
2023-01-25T10:12:37.810Z,67.10
2023-01-25T10:15:39.883Z,67.00
2023-01-25T10:18:34.850Z,66.60
2023-01-25T10:21:14.620Z,66.70
2023-01-25T10:23:49.336Z,67.10
2023-01-25T10:26:31.201Z,67.30
2023-01-25T10:29:19.250Z,67.30
2023-01-25T10:31:54.319Z,67.00
2023-01-25T10:34:34.122Z,67.00
2023-01-25T10:37:12.725Z,67.00
2023-01-25T10:39:44.079Z,67.10
2023-01-25T10:42:15.193Z,67.40
2023-01-25T10:44:41.944Z,67.30
2023-01-25T10:47:30.933Z,67.60
2023-01-25T10:49:59.142Z,67.90
2023-01-25T10:52:28.411Z,68.00
2023-01-25T10:55:13.996Z,67.90
2023-01-25T10:57:59.206Z,67.80
2023-01-25T11:00:38.513Z,67.20
2023-01-25T11:03:06.326Z,67.10
2023-01-25T11:05:35.809Z,67.30
2023-01-25T11:08:39.830Z,67.50
2023-01-25T11:11:26.400Z,67.10
2023-01-25T11:13:57.209Z,67.10
2023-01-25T11:16:35.755Z,67.00
2023-01-25T11:19:04.036Z,67.30
2023-01-25T11:21:34.069Z,67.30
2023-01-25T11:24:00.790Z,67.40
2023-01-25T11:26:28.356Z,67.10
2023-01-25T11:29:23.355Z,66.80
2023-01-25T11:31:56.061Z,66.70
2023-01-25T11:34:26.934Z,66.60
2023-01-25T11:37:12.107Z,66.80
2023-01-25T11:39:44.920Z,66.80
2023-01-25T11:42:43.192Z,66.90
2023-01-25T11:45:47.183Z,67.00
2023-01-25T11:48:19.748Z,67.20
2023-01-25T11:50:57.978Z,67.10
2023-01-25T11:53:35.341Z,66.90
2023-01-25T11:56:26.258Z,67.00
2023-01-25T11:58:59.105Z,67.20
2023-01-25T12:01:57.876Z,67.10
2023-01-25T12:04:52.868Z,67.10
2023-01-25T12:07:41.045Z,67.50
2023-01-25T12:10:22.890Z,67.60
2023-01-25T12:12:55.504Z,67.60
2023-01-25T12:15:33.616Z,67.30
2023-01-25T12:18:28.827Z,67.20
2023-01-25T12:21:31.834Z,67.40
2023-01-25T12:24:39.809Z,67.40
2023-01-25T12:27:16.077Z,67.50
2023-01-25T12:29:51.629Z,68.20
2023-01-25T12:32:31.034Z,68.50
2023-01-25T12:35:17.203Z,68.40
2023-01-25T12:37:46.504Z,68.00
2023-01-25T12:40:18.617Z,68.20
2023-01-25T12:42:53.962Z,68.30
2023-01-25T12:45:27.998Z,68.30
2023-01-25T12:48:16.204Z,68.60
2023-01-25T12:50:56.028Z,68.50
2023-01-25T12:53:42.308Z,68.60
2023-01-25T12:56:20.611Z,68.40
2023-01-25T12:59:02.346Z,67.90
2023-01-25T13:01:53.773Z,67.80
2023-01-25T13:04:37.095Z,68.30
2023-01-25T13:07:24.131Z,68.30
2023-01-25T13:09:56.794Z,68.00
2023-01-25T13:12:24.760Z,68.00
2023-01-25T13:14:54.647Z,68.10
2023-01-25T13:17:40.737Z,69.00
2023-01-25T13:20:38.809Z,68.20
2023-01-25T13:23:25.560Z,68.30
2023-01-25T13:25:52.429Z,68.50
2023-01-25T13:28:41.868Z,68.60
2023-01-25T13:31:08.773Z,68.40
2023-01-25T13:33:36.354Z,68.60
2023-01-25T13:36:38.846Z,68.80
2023-01-25T13:39:42.348Z,69.10
2023-01-25T13:42:09.070Z,68.60
2023-01-25T13:44:44.448Z,68.30
2023-01-25T13:47:32.673Z,68.60
2023-01-25T13:50:14.605Z,68.70
2023-01-25T13:52:57.422Z,68.40
2023-01-25T13:55:24.262Z,68.30
2023-01-25T13:57:51.634Z,68.30
2023-01-25T14:00:19.077Z,68.20
2023-01-25T14:02:53.402Z,68.30
2023-01-25T14:05:22.631Z,68.40
2023-01-25T14:07:52.280Z,68.50
2023-01-25T14:10:23.951Z,68.40
2023-01-25T14:12:59.032Z,68.50
2023-01-25T14:15:31.278Z,68.50
2023-01-25T14:18:14.189Z,68.60
2023-01-25T14:20:42.454Z,69.60
2023-01-25T14:23:30.143Z,68.50
2023-01-25T14:25:59.170Z,68.60
2023-01-25T14:28:26.834Z,68.60
2023-01-25T14:30:58.203Z,68.60
2023-01-25T14:33:28.451Z,68.60
2023-01-25T14:36:11.987Z,68.60
2023-01-25T14:38:48.848Z,68.80
2023-01-25T14:41:28.887Z,68.90
2023-01-25T14:43:58.712Z,69.00
2023-01-25T14:46:32.400Z,69.20
2023-01-25T14:49:25.829Z,69.20
2023-01-25T14:52:02.501Z,69.10
2023-01-25T14:54:31.939Z,69.20
2023-01-25T14:57:07.153Z,69.20
2023-01-25T14:59:41.525Z,69.10
2023-01-25T15:02:30.483Z,69.00
2023-01-25T15:05:14.963Z,69.20
2023-01-25T15:07:42.537Z,68.80
2023-01-25T15:10:18.870Z,69.10
2023-01-25T15:13:13.610Z,69.30
2023-01-25T15:16:10.758Z,69.50
2023-01-25T15:18:44.031Z,69.40
2023-01-25T15:21:25.563Z,69.40
2023-01-25T15:23:54.251Z,69.30
2023-01-25T15:26:26.352Z,69.20
2023-01-25T15:28:55.850Z,69.20
2023-01-25T15:31:26.509Z,69.00
2023-01-25T15:33:54.976Z,69.00
2023-01-25T15:36:21.812Z,69.10
2023-01-25T15:38:48.865Z,69.30
2023-01-25T15:41:18.587Z,69.10
2023-01-25T15:43:46.225Z,70.00
2023-01-25T15:46:20.069Z,69.30
2023-01-25T15:48:48.425Z,69.50
2023-01-25T15:51:15.386Z,69.40
2023-01-25T15:53:42.477Z,69.50
2023-01-25T15:56:18.780Z,69.70
2023-01-25T15:58:50.333Z,69.60
2023-01-25T16:01:17.679Z,69.40
2023-01-25T16:03:44.600Z,69.40
2023-01-25T16:06:44.602Z,69.30
2023-01-25T16:09:29.397Z,69.30
2023-01-25T16:11:57.980Z,69.10
2023-01-25T16:14:29.190Z,69.20
2023-01-25T16:16:59.564Z,69.10
2023-01-25T16:19:26.348Z,69.20
2023-01-25T16:21:53.177Z,69.10
2023-01-25T16:24:20.039Z,69.00
2023-01-25T16:26:53.860Z,68.90
2023-01-25T16:29:23.228Z,69.10
2023-01-25T16:31:51.052Z,69.40
2023-01-25T16:34:17.946Z,69.40
2023-01-25T16:36:50.138Z,69.50
2023-01-25T16:39:23.045Z,69.50
2023-01-25T16:41:50.144Z,69.50
2023-01-25T16:44:17.553Z,69.50
2023-01-25T16:46:44.927Z,69.60
2023-01-25T16:49:30.592Z,69.60
2023-01-25T16:51:58.423Z,69.60
2023-01-25T16:54:26.167Z,69.70
2023-01-25T16:56:54.521Z,69.70
2023-01-25T16:59:22.761Z,70.30
2023-01-25T17:01:49.480Z,69.40
2023-01-25T17:04:16.552Z,69.40
2023-01-25T17:06:49.440Z,69.60
2023-01-25T17:09:24.880Z,69.60
2023-01-25T17:11:54.261Z,69.80
2023-01-25T17:14:22.188Z,70.00
2023-01-25T17:16:51.450Z,70.30
2023-01-25T17:19:19.090Z,70.30
2023-01-25T17:21:46.595Z,70.50
2023-01-25T17:24:15.849Z,70.70
2023-01-25T17:26:44.862Z,70.80
2023-01-25T17:29:12.768Z,70.90
2023-01-25T17:31:41.197Z,71.00
2023-01-25T17:34:10.858Z,71.10
2023-01-25T17:36:37.626Z,71.20
2023-01-25T17:39:06.120Z,71.40
2023-01-25T17:41:33.208Z,71.40
2023-01-25T17:44:01.790Z,71.60
2023-01-25T17:46:34.997Z,71.70
2023-01-25T17:49:02.381Z,72.10
2023-01-25T17:51:30.993Z,72.10
2023-01-25T17:53:58.011Z,72.20
2023-01-25T17:56:25.495Z,72.60
2023-01-25T17:58:52.805Z,72.80
2023-01-25T18:01:20.686Z,73.10
2023-01-25T18:03:49.122Z,73.20
2023-01-25T18:06:18.762Z,73.30
2023-01-25T18:08:48.204Z,73.30
2023-01-25T18:11:20.309Z,73.30
2023-01-25T18:13:49.620Z,73.50
2023-01-25T18:16:18.011Z,73.40
2023-01-25T18:18:45.405Z,73.40
2023-01-25T18:21:22.033Z,73.30
2023-01-25T18:23:48.901Z,73.10
2023-01-25T18:26:22.003Z,72.90
2023-01-25T18:28:51.905Z,73.00
2023-01-25T18:31:19.202Z,73.20
2023-01-25T18:33:46.065Z,73.30
2023-01-25T18:36:17.842Z,73.10
2023-01-25T18:38:44.957Z,72.90
2023-01-25T18:41:12.416Z,73.00
2023-01-25T18:43:39.250Z,72.90
2023-01-25T18:46:06.180Z,72.90
2023-01-25T18:48:33.514Z,72.80
2023-01-25T18:51:08.501Z,72.80
2023-01-25T18:53:37.049Z,73.60
2023-01-25T18:56:11.140Z,72.50
2023-01-25T18:58:38.600Z,72.40
2023-01-25T19:01:10.724Z,72.50
2023-01-25T19:03:37.876Z,72.40
2023-01-25T19:06:04.822Z,72.30
2023-01-25T19:08:41.520Z,72.30
2023-01-25T19:11:14.915Z,72.50
2023-01-25T19:13:43.483Z,72.70
2023-01-25T19:16:19.785Z,72.80
2023-01-25T19:18:49.984Z,72.80
2023-01-25T19:21:21.476Z,72.90
2023-01-25T19:23:49.598Z,73.10
2023-01-25T19:26:18.724Z,73.00
2023-01-25T19:28:46.867Z,73.20
2023-01-25T19:31:19.301Z,73.30
2023-01-25T19:33:47.489Z,73.20
2023-01-25T19:36:18.427Z,73.30
2023-01-25T19:38:46.810Z,73.40
2023-01-25T19:41:20.268Z,73.50
2023-01-25T19:43:47.588Z,73.40
2023-01-25T19:46:20.525Z,73.40
2023-01-25T19:48:50.041Z,73.40
2023-01-25T19:51:21.205Z,73.40
2023-01-25T19:54:03.527Z,73.50
2023-01-25T19:56:39.515Z,73.50
2023-01-25T19:59:10.606Z,73.40
2023-01-25T20:01:37.656Z,73.50
2023-01-25T20:04:07.954Z,73.50
2023-01-25T20:06:35.205Z,73.50
2023-01-25T20:09:01.960Z,73.40
2023-01-25T20:11:32.071Z,73.40
2023-01-25T20:14:01.911Z,73.50
2023-01-25T20:16:29.112Z,73.50
2023-01-25T20:18:56.860Z,73.60
2023-01-25T20:21:25.008Z,73.60
2023-01-25T20:23:56.087Z,73.70
2023-01-25T20:26:28.645Z,73.80
2023-01-25T20:28:57.562Z,73.60
2023-01-25T20:31:39.021Z,73.50
2023-01-25T20:34:09.843Z,73.40
2023-01-25T20:36:36.819Z,73.50
2023-01-25T20:39:04.942Z,73.60
2023-01-25T20:41:31.669Z,73.80
2023-01-25T20:44:01.847Z,74.20
2023-01-25T20:46:33.689Z,74.50
2023-01-25T20:49:01.716Z,74.60
2023-01-25T20:51:29.516Z,74.80
2023-01-25T20:53:56.841Z,74.70
2023-01-25T20:56:24.534Z,74.50
2023-01-25T20:58:52.074Z,74.30
2023-01-25T21:01:30.775Z,74.20
2023-01-25T21:03:58.383Z,74.30
2023-01-25T21:06:29.093Z,74.10
2023-01-25T21:08:56.218Z,74.00
2023-01-25T21:11:25.624Z,74.70
2023-01-25T21:13:53.924Z,74.00
2023-01-25T21:16:22.511Z,73.90
2023-01-25T21:18:50.379Z,74.10
2023-01-25T21:21:20.401Z,74.20
2023-01-25T21:23:49.522Z,74.20
2023-01-25T21:26:20.729Z,74.10
2023-01-25T21:28:48.584Z,74.10
2023-01-25T21:31:35.906Z,74.10
2023-01-25T21:34:03.815Z,74.10
2023-01-25T21:36:33.610Z,74.20
2023-01-25T21:39:00.441Z,74.40
2023-01-25T21:41:30.247Z,74.30
2023-01-25T21:44:17.551Z,74.40
2023-01-25T21:46:51.369Z,74.30
2023-01-25T21:49:41.595Z,74.30
2023-01-25T21:52:08.321Z,74.30
2023-01-25T21:54:37.120Z,74.40
2023-01-25T21:57:09.236Z,75.30
2023-01-25T21:59:36.719Z,74.40
2023-01-25T22:02:05.014Z,74.20
2023-01-25T22:04:36.182Z,74.20
2023-01-25T22:07:04.216Z,74.30
2023-01-25T22:09:30.991Z,74.40
2023-01-25T22:11:58.127Z,74.50
2023-01-25T22:14:24.870Z,74.40
2023-01-25T22:16:52.307Z,74.30
2023-01-25T22:19:19.359Z,74.40
2023-01-25T22:21:46.362Z,74.30
2023-01-25T22:24:13.222Z,74.30
2023-01-25T22:26:46.589Z,74.20
2023-01-25T22:29:14.971Z,74.10
2023-01-25T22:31:43.095Z,74.10
2023-01-25T22:34:10.078Z,74.00
2023-01-25T22:36:38.119Z,73.90
2023-01-25T22:39:05.040Z,73.90
2023-01-25T22:41:35.684Z,74.10
2023-01-25T22:44:02.758Z,74.00
2023-01-25T22:46:30.155Z,73.80
2023-01-25T22:48:58.862Z,73.80
2023-01-25T22:51:28.741Z,74.00
2023-01-25T22:53:57.446Z,74.00
2023-01-25T22:56:27.173Z,74.00
2023-01-25T22:58:54.676Z,74.10
2023-01-25T23:01:24.829Z,74.00
2023-01-25T23:03:52.319Z,74.00
2023-01-25T23:06:30.510Z,73.90
2023-01-25T23:09:00.135Z,73.90
2023-01-25T23:11:32.163Z,74.00
2023-01-25T23:14:18.181Z,74.10
2023-01-25T23:16:44.928Z,74.10
2023-01-25T23:19:11.963Z,74.20
2023-01-25T23:21:38.811Z,74.10
2023-01-25T23:24:05.997Z,74.10
2023-01-25T23:26:37.711Z,74.10
2023-01-25T23:29:11.366Z,74.20
2023-01-25T23:31:38.421Z,74.40
2023-01-25T23:34:06.987Z,74.40
2023-01-25T23:36:35.896Z,74.50
2023-01-25T23:39:03.217Z,74.50
2023-01-25T23:41:31.056Z,74.80
2023-01-25T23:43:59.598Z,74.80
2023-01-25T23:46:28.223Z,74.90
2023-01-25T23:48:55.501Z,74.80
2023-01-25T23:51:22.545Z,74.80
2023-01-25T23:53:49.306Z,74.70
2023-01-25T23:56:18.476Z,74.70
2023-01-25T23:58:45.896Z,74.70
